createdAt,value
2022-11-05T00:02:48.756Z,101350.97
2022-11-05T00:06:13.043Z,101345.75
2022-11-05T00:09:30.520Z,101332.09
2022-11-05T00:12:52.836Z,101332.16
2022-11-05T00:16:15.310Z,101325.28
2022-11-05T00:19:19.994Z,101320.25
2022-11-05T00:22:43.759Z,101320.97
2022-11-05T00:25:56.525Z,101314.28
2022-11-05T00:29:01.250Z,101312.63
2022-11-05T00:32:06.440Z,101318.59
2022-11-05T00:35:11.518Z,101314.25
2022-11-05T00:38:17.856Z,101326.19
2022-11-05T00:41:22.723Z,101310.06
2022-11-05T00:44:45.205Z,101319.47
2022-11-05T00:48:07.880Z,101328.84
2022-11-05T00:51:16.146Z,101312.63
2022-11-05T00:54:22.440Z,101319.41
2022-11-05T00:57:27.221Z,101327.03
2022-11-05T01:00:33.940Z,101317.56
2022-11-05T01:03:41.052Z,101311.59
2022-11-05T01:06:45.829Z,101317.41
2022-11-05T01:09:51.991Z,101308.03
2022-11-05T01:12:57.307Z,101306.41
2022-11-05T01:16:09.692Z,101317.56
2022-11-05T01:19:14.638Z,101312.44
2022-11-05T01:22:19.544Z,101308.94
2022-11-05T01:25:26.280Z,101313.28
2022-11-05T01:28:31.149Z,101314.88
2022-11-05T01:31:35.902Z,101303.78
2022-11-05T01:34:40.797Z,101306.34
2022-11-05T01:37:45.978Z,101308.25
2022-11-05T01:40:53.313Z,101310.78
2022-11-05T01:44:00.363Z,101310.00
2022-11-05T01:47:05.031Z,101302.28
2022-11-05T01:50:24.460Z,101314.19
2022-11-05T01:53:34.299Z,101312.50
2022-11-05T01:56:44.035Z,101297.16
2022-11-05T01:59:52.061Z,101293.84
2022-11-05T02:02:57.006Z,101294.50
2022-11-05T02:06:02.906Z,101288.56
2022-11-05T02:09:10.521Z,101278.41
2022-11-05T02:12:17.268Z,101279.38
2022-11-05T02:15:31.639Z,101264.00
2022-11-05T02:18:52.239Z,101280.16
2022-11-05T02:22:32.142Z,101277.59
2022-11-05T02:26:00.025Z,101283.59
2022-11-05T02:30:08.249Z,101273.44
2022-11-05T02:33:37.536Z,101281.03
2022-11-05T02:36:48.006Z,101270.00
2022-11-05T02:40:02.105Z,101266.63
2022-11-05T02:43:16.251Z,101268.41
2022-11-05T02:46:31.017Z,101270.88
2022-11-05T02:49:44.517Z,101252.09
2022-11-05T02:53:04.665Z,101272.81
2022-11-05T02:56:14.370Z,101259.22
2022-11-05T02:59:19.170Z,101276.13
2022-11-05T03:02:23.992Z,101272.84
2022-11-05T03:05:38.218Z,101268.63
2022-11-05T03:09:02.482Z,101277.16
2022-11-05T03:12:21.459Z,101272.06
2022-11-05T03:15:44.492Z,101272.81
2022-11-05T03:18:56.241Z,101273.72
2022-11-05T03:22:06.468Z,101288.09
2022-11-05T03:25:17.555Z,101282.91
2022-11-05T03:28:25.691Z,101276.91
2022-11-05T03:31:31.728Z,101289.69
2022-11-05T03:34:41.631Z,101293.88
2022-11-05T03:37:50.483Z,101287.13
2022-11-05T03:40:58.236Z,101292.28
2022-11-05T03:44:06.975Z,101293.13
2022-11-05T03:47:16.341Z,101294.69
2022-11-05T03:50:25.259Z,101288.69
2022-11-05T03:53:34.340Z,101286.09
2022-11-05T03:56:44.266Z,101294.69
2022-11-05T03:59:52.034Z,101302.38
2022-11-05T04:02:57.071Z,101294.63
2022-11-05T04:06:19.981Z,101285.34
2022-11-05T04:09:43.777Z,101291.34
2022-11-05T04:13:12.104Z,101295.59
2022-11-05T04:16:34.589Z,101279.50
2022-11-05T04:19:58.722Z,101283.72
2022-11-05T04:23:21.745Z,101288.66
2022-11-05T04:26:28.050Z,101283.50
2022-11-05T04:29:50.087Z,101275.00
2022-11-05T04:33:03.105Z,101267.38
2022-11-05T04:36:09.061Z,101275.91
2022-11-05T04:39:14.269Z,101268.25
2022-11-05T04:42:20.384Z,101268.13
2022-11-05T04:45:26.035Z,101270.84
2022-11-05T04:48:30.894Z,101273.44
2022-11-05T04:51:35.955Z,101265.69
2022-11-05T04:54:40.991Z,101266.59
2022-11-05T04:57:49.641Z,101275.22
2022-11-05T05:00:54.258Z,101262.38
2022-11-05T05:03:59.200Z,101266.53
2022-11-05T05:07:03.820Z,101255.53
2022-11-05T05:10:10.269Z,101252.97
2022-11-05T05:13:16.399Z,101258.81
2022-11-05T05:16:23.408Z,101261.41
2022-11-05T05:19:28.440Z,101259.69
2022-11-05T05:22:32.297Z,101262.25
2022-11-05T05:25:37.048Z,101256.31
2022-11-05T05:28:44.201Z,101256.25
2022-11-05T05:31:48.873Z,101247.81
2022-11-05T05:34:54.450Z,101256.31
2022-11-05T05:37:59.049Z,101246.97
2022-11-05T05:41:04.096Z,101249.50
2022-11-05T05:44:10.556Z,101247.78
2022-11-05T05:47:15.977Z,101256.31
2022-11-05T05:50:20.732Z,101252.94
2022-11-05T05:53:30.329Z,101243.59
2022-11-05T05:56:34.961Z,101253.81
2022-11-05T05:59:41.444Z,101249.59
2022-11-05T06:02:46.124Z,101258.09
2022-11-05T06:05:51.858Z,101256.41
2022-11-05T06:08:57.535Z,101248.00
2022-11-05T06:12:02.320Z,101248.78
2022-11-05T06:15:09.982Z,101249.72
2022-11-05T06:18:15.370Z,101254.88
2022-11-05T06:21:20.403Z,101254.75
2022-11-05T06:24:25.319Z,101254.72
2022-11-05T06:27:30.343Z,101254.09
2022-11-05T06:30:36.526Z,101247.06
2022-11-05T06:33:41.828Z,101252.25
2022-11-05T06:36:46.908Z,101253.03
2022-11-05T06:39:51.526Z,101247.81
2022-11-05T06:42:56.768Z,101248.53
2022-11-05T06:46:04.907Z,101239.13
2022-11-05T06:49:09.892Z,101249.53
2022-11-05T06:52:15.580Z,101244.47
2022-11-05T06:55:20.430Z,101240.22
2022-11-05T06:58:25.097Z,101247.81
2022-11-05T07:01:32.136Z,101247.75
2022-11-05T07:04:37.190Z,101249.56
2022-11-05T07:07:43.355Z,101247.97
2022-11-05T07:10:47.987Z,101239.47
2022-11-05T07:13:52.850Z,101246.97
2022-11-05T07:16:59.978Z,101253.88
2022-11-05T07:20:06.062Z,101250.41
2022-11-05T07:23:14.244Z,101251.25
2022-11-05T07:26:19.510Z,101255.53
2022-11-05T07:29:24.121Z,101253.91
2022-11-05T07:32:30.198Z,101255.59
2022-11-05T07:35:34.908Z,101253.00
2022-11-05T07:38:40.180Z,101252.25
2022-11-05T07:41:44.788Z,101251.38
2022-11-05T07:44:50.285Z,101245.38
2022-11-05T07:47:58.728Z,101244.66
2022-11-05T07:51:03.469Z,101240.34
2022-11-05T07:54:08.293Z,101239.59
2022-11-05T07:57:13.082Z,101243.66
2022-11-05T08:00:21.632Z,101249.69
2022-11-05T08:03:28.121Z,101239.31
2022-11-05T08:06:33.393Z,101240.13
2022-11-05T08:09:38.091Z,101230.78
2022-11-05T08:12:43.493Z,101232.59
2022-11-05T08:15:48.853Z,101237.81
2022-11-05T08:18:54.940Z,101232.66
2022-11-05T08:21:59.724Z,101228.38
2022-11-05T08:25:06.945Z,101235.91
2022-11-05T08:28:15.289Z,101225.16
2022-11-05T08:31:19.928Z,101226.63
2022-11-05T08:34:26.229Z,101214.06
2022-11-05T08:37:30.937Z,101210.44
2022-11-05T08:40:37.953Z,101207.91
2022-11-05T08:43:42.684Z,101211.44
2022-11-05T08:46:47.748Z,101191.81
2022-11-05T08:49:54.629Z,101190.06
2022-11-05T08:52:59.731Z,101184.88
2022-11-05T08:56:04.396Z,101184.84
2022-11-05T08:59:10.050Z,101180.53
2022-11-05T09:02:14.807Z,101183.22
2022-11-05T09:05:21.369Z,101180.88
2022-11-05T09:08:26.023Z,101180.66
2022-11-05T09:11:57.025Z,101182.38
2022-11-05T09:14:55.416Z,101183.16
2022-11-05T09:18:00.851Z,101173.81
2022-11-05T09:21:07.137Z,101172.91
2022-11-05T09:24:12.694Z,101172.00
2022-11-05T09:27:17.374Z,101176.44
2022-11-05T09:30:22.437Z,101170.41
2022-11-05T09:33:28.065Z,101171.38
2022-11-05T09:36:34.184Z,101166.19
2022-11-05T09:39:39.098Z,101169.75
2022-11-05T09:42:46.794Z,101167.81
2022-11-05T09:45:54.341Z,101169.00
2022-11-05T09:49:04.492Z,101166.97
2022-11-05T09:52:16.165Z,101156.25
2022-11-05T09:55:25.129Z,101166.41
2022-11-05T09:58:39.045Z,101156.31
2022-11-05T10:01:45.521Z,101165.22
2022-11-05T10:04:58.867Z,101168.63
2022-11-05T10:08:11.342Z,101157.44
2022-11-05T10:11:20.936Z,101163.56
2022-11-05T10:14:29.645Z,101157.69
2022-11-05T10:17:38.995Z,101156.72
2022-11-05T10:20:44.888Z,101146.38
2022-11-05T10:23:51.436Z,101143.66
2022-11-05T10:26:56.670Z,101145.69
2022-11-05T10:30:01.644Z,101145.66
2022-11-05T10:33:07.485Z,101136.16
2022-11-05T10:36:18.577Z,101137.06
2022-11-05T10:39:27.701Z,101138.03
2022-11-05T10:42:46.523Z,101133.66
2022-11-05T10:45:58.304Z,101132.16
2022-11-05T10:49:18.884Z,101126.84
2022-11-05T10:52:27.183Z,101112.44
2022-11-05T10:55:35.889Z,101128.31
2022-11-05T10:58:57.062Z,101113.50
2022-11-05T11:02:04.887Z,101116.94
2022-11-05T11:05:10.883Z,101099.09
2022-11-05T11:08:24.688Z,101104.34
2022-11-05T11:11:35.765Z,101093.94
2022-11-05T11:14:40.462Z,101089.78
2022-11-05T11:17:45.213Z,101097.41
2022-11-05T11:20:49.890Z,101088.84
2022-11-05T11:23:59.832Z,101101.88
2022-11-05T11:27:11.611Z,101089.16
2022-11-05T11:30:20.460Z,101099.16
2022-11-05T11:33:28.450Z,101089.09
2022-11-05T11:36:36.474Z,101083.19
2022-11-05T11:39:41.410Z,101081.22
2022-11-05T11:42:50.077Z,101087.16
2022-11-05T11:46:03.776Z,101076.28
2022-11-05T11:49:34.358Z,101081.31
2022-11-05T11:52:39.060Z,101083.03
2022-11-05T11:56:07.302Z,101068.59
2022-11-05T11:59:40.480Z,101062.50
2022-11-05T12:03:18.495Z,101064.34
2022-11-05T12:06:30.284Z,101060.91
2022-11-05T12:09:52.908Z,101060.13
2022-11-05T12:13:21.901Z,101057.63
2022-11-05T12:17:11.611Z,101048.28
2022-11-05T12:20:57.955Z,101045.63
2022-11-05T12:24:21.980Z,101037.00
2022-11-05T12:27:47.438Z,101032.78
2022-11-05T12:30:57.676Z,101017.38
2022-11-05T12:34:19.144Z,101008.97
2022-11-05T12:37:33.812Z,101019.00
2022-11-05T12:40:52.176Z,101013.97
2022-11-05T12:44:18.352Z,101014.75
2022-11-05T12:47:48.949Z,101013.19
2022-11-05T12:50:56.984Z,101002.91
2022-11-05T12:54:17.172Z,101001.22
2022-11-05T12:57:25.132Z,101005.28
2022-11-05T13:00:30.872Z,101002.66
2022-11-05T13:03:43.034Z,101000.34
2022-11-05T13:06:51.382Z,100993.53
2022-11-05T13:10:00.236Z,100999.28
2022-11-05T13:13:13.493Z,101002.69
2022-11-05T13:16:25.822Z,100990.34
2022-11-05T13:19:36.165Z,100988.44
2022-11-05T13:22:44.129Z,100985.94
2022-11-05T13:25:52.857Z,100985.19
2022-11-05T13:29:06.613Z,100987.88
2022-11-05T13:32:26.931Z,100986.94
2022-11-05T13:35:36.577Z,100981.69
2022-11-05T13:39:03.519Z,100980.00
2022-11-05T13:42:42.216Z,100974.16
2022-11-05T13:46:14.979Z,100972.47
2022-11-05T13:49:56.518Z,100970.91
2022-11-05T13:53:49.084Z,100964.06
2022-11-05T13:57:10.411Z,100971.84
2022-11-05T14:00:19.432Z,100964.78
2022-11-05T14:03:25.883Z,100959.78
2022-11-05T14:06:34.373Z,100959.56
2022-11-05T14:09:40.038Z,100966.44
2022-11-05T14:12:50.180Z,100962.09
2022-11-05T14:16:03.710Z,100967.50
2022-11-05T14:19:38.393Z,100953.19
2022-11-05T14:22:43.676Z,100951.41
2022-11-05T14:25:56.685Z,100947.94
2022-11-05T14:29:25.071Z,100944.38
2022-11-05T14:32:45.697Z,100940.94
2022-11-05T14:35:51.517Z,100934.94
2022-11-05T14:39:01.484Z,100926.38
2022-11-05T14:42:16.943Z,100934.00
2022-11-05T14:45:31.240Z,100937.50
2022-11-05T14:48:40.484Z,100922.19
2022-11-05T14:51:49.389Z,100929.03
2022-11-05T14:54:55.789Z,100923.94
2022-11-05T14:58:33.196Z,100921.28
2022-11-05T15:01:57.476Z,100915.91
2022-11-05T15:05:40.720Z,100916.09
2022-11-05T15:09:07.002Z,100916.00
2022-11-05T15:12:19.760Z,100920.03
2022-11-05T15:15:27.894Z,100907.28
2022-11-05T15:18:44.177Z,100913.97
2022-11-05T15:21:49.569Z,100905.50
2022-11-05T15:24:56.750Z,100910.59
2022-11-05T15:28:07.919Z,100905.50
2022-11-05T15:31:31.500Z,100908.84
2022-11-05T15:34:36.722Z,100899.38
2022-11-05T15:37:53.416Z,100897.84
2022-11-05T15:41:05.302Z,100904.38
2022-11-05T15:44:27.071Z,100914.66
2022-11-05T15:47:34.227Z,100905.97
2022-11-05T15:50:39.120Z,100911.09
2022-11-05T15:57:29.039Z,100904.97
2022-11-05T16:00:37.258Z,100909.41
2022-11-05T16:03:43.465Z,100908.44
2022-11-05T16:06:50.452Z,100910.06
2022-11-05T16:09:57.775Z,100901.59
2022-11-05T16:13:38.107Z,100912.69
2022-11-05T16:16:43.017Z,100909.28
2022-11-05T16:19:49.097Z,100903.56
2022-11-05T16:22:55.701Z,100904.34
2022-11-05T16:26:00.583Z,100908.53
2022-11-05T16:29:19.489Z,100917.94
2022-11-05T16:32:30.654Z,100909.47
2022-11-05T16:35:41.024Z,100919.06
2022-11-05T16:38:46.321Z,100909.75
2022-11-05T16:41:51.351Z,100913.25
2022-11-05T16:44:57.477Z,100913.22
2022-11-05T16:48:02.214Z,100916.72
2022-11-05T16:51:07.352Z,100920.13
2022-11-05T16:54:12.585Z,100917.59
2022-11-05T16:57:31.572Z,100917.75
2022-11-05T17:00:37.552Z,100917.91
2022-11-05T17:03:42.358Z,100911.13
2022-11-05T17:06:49.038Z,100912.94
2022-11-05T17:09:53.859Z,100919.00
2022-11-05T17:12:58.536Z,100926.72
2022-11-05T17:16:05.527Z,100916.50
2022-11-05T17:19:15.276Z,100927.69
2022-11-05T17:22:20.264Z,100921.44
2022-11-05T17:25:26.054Z,100919.94
2022-11-05T17:28:31.850Z,100931.81
2022-11-05T17:31:39.613Z,100918.25
2022-11-05T17:34:44.653Z,100908.97
2022-11-05T17:37:49.390Z,100913.28
2022-11-05T17:40:54.601Z,100912.66
2022-11-05T17:44:00.369Z,100914.44
2022-11-05T17:47:06.529Z,100920.41
2022-11-05T17:50:16.798Z,100926.34
2022-11-05T17:53:21.858Z,100931.53
2022-11-05T17:56:34.108Z,100936.88
2022-11-05T17:59:42.038Z,100931.59
2022-11-05T18:02:49.467Z,100932.47
2022-11-05T18:05:54.502Z,100937.56
2022-11-05T18:08:59.470Z,100932.41
2022-11-05T18:12:04.269Z,100929.97
2022-11-05T18:15:10.926Z,100936.91
2022-11-05T18:18:19.304Z,100945.47
2022-11-05T18:21:24.280Z,100938.63
2022-11-05T18:24:29.023Z,100928.47
2022-11-05T18:27:34.092Z,100942.94
2022-11-05T18:30:40.608Z,100944.84
2022-11-05T18:33:46.962Z,100940.63
2022-11-05T18:36:56.156Z,100937.13
2022-11-05T18:40:01.633Z,100938.81
2022-11-05T18:43:07.197Z,100943.25
2022-11-05T18:46:36.115Z,100940.72
2022-11-05T18:49:39.528Z,100940.81
2022-11-05T18:52:45.119Z,100943.28
2022-11-05T18:55:49.866Z,100940.91
2022-11-05T18:59:14.625Z,100934.91
2022-11-05T19:02:19.851Z,100947.78
2022-11-05T19:05:30.111Z,100937.63
2022-11-05T19:08:35.417Z,100937.53
2022-11-05T19:11:41.042Z,100942.78
2022-11-05T19:14:45.955Z,100948.72
2022-11-05T19:17:50.793Z,100950.59
2022-11-05T19:20:57.042Z,100958.31
2022-11-05T19:24:04.146Z,100951.44
2022-11-05T19:27:09.109Z,100953.75
2022-11-05T19:30:14.400Z,100956.41
2022-11-05T19:33:20.789Z,100963.16
2022-11-05T19:36:27.429Z,100964.94
2022-11-05T19:39:32.137Z,100971.91
2022-11-05T19:42:37.206Z,100956.53
2022-11-05T19:45:45.181Z,100971.88
2022-11-05T19:48:51.558Z,100973.53
2022-11-05T19:51:57.631Z,100980.34
2022-11-05T19:55:03.707Z,100980.38
2022-11-05T19:58:14.427Z,100983.84
2022-11-05T20:01:21.451Z,100980.34
2022-11-05T20:04:26.536Z,100984.81
2022-11-05T20:07:33.252Z,100982.25
2022-11-05T20:10:39.111Z,100978.94
2022-11-05T20:13:43.790Z,100985.63
2022-11-05T20:16:48.727Z,100991.53
2022-11-05T20:19:53.552Z,101003.56
2022-11-05T20:22:59.843Z,100988.25
2022-11-05T20:26:07.127Z,100999.28
2022-11-05T20:29:13.029Z,100991.72
2022-11-05T20:32:18.011Z,100994.25
2022-11-05T20:35:23.058Z,100994.19
2022-11-05T20:38:29.309Z,100992.53
2022-11-05T20:41:34.011Z,100988.28
2022-11-05T20:44:38.646Z,100996.84
2022-11-05T20:47:43.696Z,100992.59
2022-11-05T20:50:48.356Z,101005.44
2022-11-05T20:53:58.146Z,100999.41
2022-11-05T20:57:02.909Z,100999.59
2022-11-05T21:00:09.660Z,100999.63
2022-11-05T21:03:18.750Z,100993.72
2022-11-05T21:06:23.780Z,100996.28
2022-11-05T21:09:30.033Z,100999.69
2022-11-05T21:12:34.973Z,100987.81
2022-11-05T21:15:39.991Z,100986.19
2022-11-05T21:18:44.775Z,100990.38
2022-11-05T21:21:49.586Z,100999.75
2022-11-05T21:24:58.028Z,101000.75
2022-11-05T21:28:02.727Z,100995.63
2022-11-05T21:31:08.908Z,100996.38
2022-11-05T21:34:14.628Z,100994.78
2022-11-05T21:37:20.404Z,100992.22
2022-11-05T21:40:26.690Z,100993.97
2022-11-05T21:43:32.123Z,100989.75
2022-11-05T21:46:37.759Z,100994.81
2022-11-05T21:49:42.480Z,100996.53
2022-11-05T21:53:04.513Z,101000.75
2022-11-05T21:56:36.315Z,101005.06
2022-11-05T21:59:51.789Z,101010.16
2022-11-05T22:02:59.941Z,101012.75
2022-11-05T22:06:04.954Z,101011.06
2022-11-05T22:09:09.956Z,101007.78
2022-11-05T22:12:16.812Z,101013.72
2022-11-05T22:15:21.816Z,101012.81
2022-11-05T22:18:26.529Z,101013.63
2022-11-05T22:21:31.368Z,101020.50
2022-11-05T22:24:36.904Z,101026.41
2022-11-05T22:27:44.083Z,101031.59
2022-11-05T22:30:48.792Z,101044.31
2022-11-05T22:33:53.876Z,101035.88
2022-11-05T22:36:59.293Z,101038.28
2022-11-05T22:40:04.531Z,101036.75
2022-11-05T22:43:11.712Z,101049.19
2022-11-05T22:46:20.159Z,101050.84
2022-11-05T22:49:25.032Z,101050.66
2022-11-05T22:52:30.968Z,101055.75
2022-11-05T22:55:39.693Z,101042.91
2022-11-05T22:58:45.906Z,101043.59
2022-11-05T23:01:50.973Z,101041.81
2022-11-05T23:04:56.182Z,101043.53
2022-11-05T23:08:18.732Z,101046.09
2022-11-05T23:11:38.500Z,101036.66
2022-11-05T23:14:45.037Z,101036.53
2022-11-05T23:18:07.169Z,101040.84
2022-11-05T23:21:31.203Z,101040.94
2022-11-05T23:24:37.233Z,101042.47
2022-11-05T23:27:42.875Z,101043.31
2022-11-05T23:31:06.484Z,101040.69
2022-11-05T23:34:12.065Z,101049.25
2022-11-05T23:37:35.052Z,101044.09
2022-11-05T23:41:00.172Z,101033.81
2022-11-05T23:44:22.724Z,101037.94
2022-11-05T23:47:46.322Z,101042.13
2022-11-05T23:50:54.468Z,101036.22
2022-11-05T23:53:59.245Z,101047.47
2022-11-05T23:57:04.289Z,101048.16
